Time;durP1;ratioP1;P1;durP2;ratioP2;P2;SDS_P1;SDS_P2;PMS_P1;PMS_P2;Temp;Humidity;BMP_temperature;BMP_pressure;BME280_temperature;BME280_humidity;BME280_pressure;Samples;Min_cycle;Max_cycle;Signal;HPM_P1;HPM_P2
2022/08/16 00:00:24;;;;;;;15.60;14.10;;;;;;;;;;6273724;22;20186;-74
2022/08/16 00:02:50;;;;;;;15.95;14.35;;;;;;;;;;6274017;22;20202;-75
2022/08/16 00:05:15;;;;;;;16.27;14.77;;;;;;;;;;6274254;22;20528;-75
2022/08/16 00:07:41;;;;;;;16.23;14.68;;;;;;;;;;6273999;22;20166;-75
2022/08/16 00:10:07;;;;;;;18.80;17.08;;;;;;;;;;6273916;22;20226;-74
2022/08/16 00:12:33;;;;;;;16.77;14.75;;;;;;;;;;6273322;22;20247;-75
2022/08/16 00:14:59;;;;;;;18.05;16.30;;;;;;;;;;6274091;22;20681;-74
2022/08/16 00:17:25;;;;;;;18.65;16.95;;;;;;;;;;6272519;22;20145;-74
2022/08/16 00:19:52;;;;;;;17.27;15.48;;;;;;;;;;6273204;22;20194;-74
2022/08/16 00:22:17;;;;;;;19.13;17.42;;;;;;;;;;6272250;22;20148;-75
2022/08/16 00:24:43;;;;;;;19.05;17.30;;;;;;;;;;6274495;22;20210;-74
2022/08/16 00:27:08;;;;;;;18.95;17.17;;;;;;;;;;6274026;22;20184;-75
2022/08/16 00:29:33;;;;;;;18.95;17.15;;;;;;;;;;6272233;22;20176;-75
2022/08/16 00:32:00;;;;;;;19.85;18.02;;;;;;;;;;6273046;22;20199;-73
2022/08/16 00:34:25;;;;;;;20.92;18.77;;;;;;;;;;6274017;22;20140;-74
2022/08/16 00:36:51;;;;;;;19.40;17.60;;;;;;;;;;6273294;22;20152;-73
2022/08/16 00:39:16;;;;;;;22.40;20.20;;;;;;;;;;6274113;22;20160;-74
2022/08/16 00:41:42;;;;;;;19.48;17.67;;;;;;;;;;6272949;22;20201;-74
2022/08/16 00:44:10;;;;;;;23.40;21.10;;;;;;;;;;6274072;22;20152;-74
2022/08/16 00:46:46;;;;;;;22.58;20.30;;;;;;;;;;6274499;22;20149;-74
2022/08/16 00:49:12;;;;;;;21.90;19.63;;;;;;;;;;6274133;22;20535;-74
2022/08/16 00:51:37;;;;;;;22.45;20.33;;;;;;;;;;6273829;22;20268;-74
2022/08/16 00:54:02;;;;;;;19.05;17.35;;;;;;;;;;6273921;22;20664;-74
2022/08/16 00:56:30;;;;;;;21.77;19.77;;;;;;;;;;6273832;22;20145;-75
2022/08/16 00:58:55;;;;;;;22.83;20.48;;;;;;;;;;6273497;22;20187;-75
2022/08/16 01:01:21;;;;;;;23.73;21.35;;;;;;;;;;6273721;22;20505;-75
2022/08/16 01:03:48;;;;;;;21.88;19.77;;;;;;;;;;6274476;22;20144;-75
2022/08/16 01:06:14;;;;;;;27.75;24.83;;;;;;;;;;6274429;22;20206;-75
2022/08/16 01:08:40;;;;;;;28.23;24.45;;;;;;;;;;6274554;22;20168;-75
2022/08/16 01:11:06;;;;;;;25.67;23.27;;;;;;;;;;6274203;22;20222;-75
2022/08/16 01:13:32;;;;;;;25.33;22.63;;;;;;;;;;6274559;22;20240;-75
2022/08/16 01:16:02;;;;;;;26.92;24.33;;;;;;;;;;6274274;22;20147;-75
2022/08/16 01:18:30;;;;;;;25.92;23.42;;;;;;;;;;6274175;22;20168;-75
2022/08/16 01:20:59;;;;;;;26.65;24.02;;;;;;;;;;6273965;22;20190;-75
2022/08/16 01:23:47;;;;;;;25.55;23.02;;;;;;;;;;6272397;22;20160;-75
2022/08/16 01:26:12;;;;;;;25.67;23.08;;;;;;;;;;6273646;22;20160;-74
2022/08/16 01:28:37;;;;;;;26.50;23.13;;;;;;;;;;6273972;22;20206;-75
2022/08/16 01:31:07;;;;;;;26.38;23.60;;;;;;;;;;6273394;22;20179;-75
2022/08/16 01:33:32;;;;;;;22.40;20.20;;;;;;;;;;6274064;22;20155;-75
2022/08/16 01:35:59;;;;;;;24.25;21.85;;;;;;;;;;6273022;22;20144;-75
2022/08/16 01:38:41;;;;;;;26.30;23.70;;;;;;;;;;6272899;22;20164;-75
2022/08/16 01:41:11;;;;;;;24.55;21.83;;;;;;;;;;6271044;22;20183;-74
2022/08/16 01:43:39;;;;;;;25.10;22.42;;;;;;;;;;6272976;22;20140;-75
2022/08/16 01:46:06;;;;;;;23.25;20.95;;;;;;;;;;6273847;22;20144;-74
2022/08/16 01:48:32;;;;;;;24.25;21.77;;;;;;;;;;6273222;22;20168;-74
2022/08/16 01:50:58;;;;;;;20.20;18.23;;;;;;;;;;6273423;22;20183;-74
2022/08/16 01:53:24;;;;;;;22.75;20.25;;;;;;;;;;6273519;22;20683;-76
2022/08/16 01:55:50;;;;;;;23.52;20.58;;;;;;;;;;6273554;22;20149;-75
2022/08/16 01:58:15;;;;;;;22.55;18.90;;;;;;;;;;6272659;22;20194;-75
2022/08/16 02:00:41;;;;;;;21.83;19.52;;;;;;;;;;6273370;22;20161;-74
2022/08/16 02:03:06;;;;;;;25.35;22.73;;;;;;;;;;6273822;22;20144;-75
2022/08/16 02:05:31;;;;;;;22.27;19.38;;;;;;;;;;6273133;22;20211;-75
2022/08/16 02:07:57;;;;;;;20.80;18.63;;;;;;;;;;6272340;22;20145;-74
2022/08/16 02:10:22;;;;;;;21.73;19.40;;;;;;;;;;6273827;22;20602;-74
2022/08/16 02:12:48;;;;;;;21.95;19.60;;;;;;;;;;6273180;22;20145;-74
2022/08/16 02:15:14;;;;;;;25.08;22.55;;;;;;;;;;6275421;22;20148;-75
2022/08/16 02:17:39;;;;;;;23.55;21.15;;;;;;;;;;6274342;22;20190;-75
2022/08/16 02:20:05;;;;;;;22.23;19.95;;;;;;;;;;6275312;22;20538;-75
2022/08/16 02:22:30;;;;;;;22.05;19.10;;;;;;;;;;6274568;22;20188;-75
2022/08/16 02:24:55;;;;;;;22.73;20.30;;;;;;;;;;6275588;22;20156;-75
2022/08/16 02:27:21;;;;;;;22.60;19.43;;;;;;;;;;6275192;22;20217;-75
2022/08/16 02:29:46;;;;;;;22.63;20.20;;;;;;;;;;6271674;22;20382;-75
2022/08/16 02:32:12;;;;;;;21.35;19.25;;;;;;;;;;6274253;22;20659;-75
2022/08/16 02:34:38;;;;;;;23.08;19.98;;;;;;;;;;6274728;22;20148;-74
2022/08/16 02:37:03;;;;;;;20.92;18.58;;;;;;;;;;6275436;22;20153;-75
2022/08/16 02:39:28;;;;;;;19.92;17.90;;;;;;;;;;6273003;22;20172;-75
2022/08/16 02:41:54;;;;;;;17.33;15.40;;;;;;;;;;6273187;22;20507;-75
2022/08/16 02:44:19;;;;;;;21.85;19.65;;;;;;;;;;6275144;22;20258;-75
2022/08/16 02:46:44;;;;;;;22.55;19.33;;;;;;;;;;6274896;22;20222;-75
2022/08/16 02:49:10;;;;;;;21.92;17.85;;;;;;;;;;6274945;22;20160;-75
2022/08/16 02:51:36;;;;;;;22.08;19.67;;;;;;;;;;6274230;22;20150;-75
2022/08/16 02:54:02;;;;;;;20.92;18.67;;;;;;;;;;6275499;22;20228;-74
2022/08/16 02:56:28;;;;;;;26.05;21.45;;;;;;;;;;6274294;22;20171;-75
2022/08/16 02:58:54;;;;;;;23.02;20.63;;;;;;;;;;6273165;22;20188;-75
2022/08/16 03:01:21;;;;;;;23.98;20.75;;;;;;;;;;6274658;22;20176;-75
2022/08/16 03:03:48;;;;;;;24.38;21.30;;;;;;;;;;6274066;22;20176;-73
2022/08/16 03:06:13;;;;;;;22.90;20.55;;;;;;;;;;6274845;22;20141;-74
2022/08/16 03:08:38;;;;;;;23.10;20.55;;;;;;;;;;6273132;22;20168;-75
2022/08/16 03:11:03;;;;;;;22.73;20.35;;;;;;;;;;6274227;22;20188;-75
2022/08/16 03:13:29;;;;;;;25.30;22.80;;;;;;;;;;6275254;22;20225;-75
2022/08/16 03:15:54;;;;;;;23.75;21.17;;;;;;;;;;6274088;22;20155;-76
2022/08/16 03:18:20;;;;;;;21.95;19.75;;;;;;;;;;6274230;22;20510;-74
2022/08/16 03:20:45;;;;;;;22.10;19.80;;;;;;;;;;6274201;22;20176;-74
2022/08/16 03:23:10;;;;;;;20.52;18.23;;;;;;;;;;6273573;22;20235;-74
2022/08/16 03:25:36;;;;;;;22.38;19.52;;;;;;;;;;6274235;22;20172;-75
2022/08/16 03:28:02;;;;;;;22.45;20.20;;;;;;;;;;6272847;22;20523;-74
2022/08/16 03:30:28;;;;;;;23.63;21.33;;;;;;;;;;6273375;22;20149;-74
2022/08/16 03:32:54;;;;;;;21.00;19.00;;;;;;;;;;6272611;22;20665;-74
2022/08/16 03:35:21;;;;;;;24.02;20.70;;;;;;;;;;6274663;22;20148;-74
2022/08/16 03:37:47;;;;;;;22.70;20.35;;;;;;;;;;6274388;22;20156;-74
2022/08/16 03:40:13;;;;;;;19.55;17.13;;;;;;;;;;6274212;22;20592;-74
2022/08/16 03:42:38;;;;;;;25.98;23.23;;;;;;;;;;6274269;22;20223;-74
2022/08/16 03:45:04;;;;;;;23.00;20.73;;;;;;;;;;6274639;22;20144;-74
2022/08/16 03:47:29;;;;;;;25.63;23.05;;;;;;;;;;6272438;22;20596;-74
2022/08/16 03:49:55;;;;;;;22.70;19.73;;;;;;;;;;6274081;22;20254;-74
2022/08/16 03:52:21;;;;;;;24.83;22.27;;;;;;;;;;6273885;22;20144;-74
2022/08/16 03:54:47;;;;;;;25.95;22.42;;;;;;;;;;6272385;22;20153;-74
2022/08/16 03:57:12;;;;;;;22.55;20.35;;;;;;;;;;6274031;22;20155;-74
2022/08/16 03:59:37;;;;;;;23.13;20.52;;;;;;;;;;6273355;22;20184;-74
2022/08/16 04:02:02;;;;;;;27.13;21.10;;;;;;;;;;6274829;22;20171;-75
2022/08/16 04:04:28;;;;;;;28.55;22.90;;;;;;;;;;6274175;22;20649;-75
2022/08/16 04:06:53;;;;;;;25.50;22.95;;;;;;;;;;6273826;22;20190;-74
2022/08/16 04:09:18;;;;;;;22.50;20.30;;;;;;;;;;6273694;22;20619;-75
2022/08/16 04:11:43;;;;;;;24.50;21.90;;;;;;;;;;6274335;22;20152;-75
2022/08/16 04:14:08;;;;;;;26.85;23.35;;;;;;;;;;6273938;22;20408;-75
2022/08/16 04:16:34;;;;;;;24.63;22.20;;;;;;;;;;6274869;22;20159;-74
2022/08/16 04:18:59;;;;;;;24.70;22.13;;;;;;;;;;6274086;22;20227;-75
2022/08/16 04:21:24;;;;;;;27.75;24.85;;;;;;;;;;6273223;22;20255;-74
2022/08/16 04:23:49;;;;;;;28.77;25.60;;;;;;;;;;6273291;22;20144;-76
2022/08/16 04:26:15;;;;;;;28.20;25.17;;;;;;;;;;6274235;22;20147;-76
2022/08/16 04:28:40;;;;;;;26.88;24.08;;;;;;;;;;6274088;22;20194;-74
2022/08/16 04:31:05;;;;;;;33.35;28.75;;;;;;;;;;6272142;22;20149;-74
2022/08/16 04:33:31;;;;;;;35.63;28.52;;;;;;;;;;6273971;22;20144;-74
2022/08/16 04:35:57;;;;;;;33.53;28.63;;;;;;;;;;6273836;22;20210;-75
2022/08/16 04:38:22;;;;;;;34.45;30.40;;;;;;;;;;6272450;22;20795;-74
2022/08/16 04:40:47;;;;;;;33.20;28.27;;;;;;;;;;6271677;22;20631;-74
2022/08/16 04:43:14;;;;;;;36.22;31.30;;;;;;;;;;6274501;22;20136;-75
2022/08/16 04:45:39;;;;;;;33.08;29.52;;;;;;;;;;6274768;22;20219;-74
2022/08/16 04:48:04;;;;;;;31.35;27.85;;;;;;;;;;6274681;22;20165;-74
2022/08/16 04:50:30;;;;;;;32.03;28.35;;;;;;;;;;6273725;22;20266;-74
2022/08/16 04:52:56;;;;;;;30.30;27.30;;;;;;;;;;6273754;22;20499;-74
2022/08/16 04:55:23;;;;;;;28.67;25.70;;;;;;;;;;6273054;22;20724;-74
2022/08/16 04:57:50;;;;;;;30.38;26.80;;;;;;;;;;6273061;22;20173;-74
2022/08/16 05:00:18;;;;;;;30.75;27.40;;;;;;;;;;6272393;22;20196;-68
2022/08/16 05:02:43;;;;;;;30.85;26.58;;;;;;;;;;6272027;22;20153;-69
2022/08/16 05:05:09;;;;;;;33.38;29.83;;;;;;;;;;6271403;22;20156;-68
2022/08/16 05:07:36;;;;;;;35.70;28.70;;;;;;;;;;6271867;22;20361;-69
2022/08/16 05:10:02;;;;;;;28.95;25.88;;;;;;;;;;6271822;22;20167;-69
2022/08/16 05:12:27;;;;;;;31.33;27.83;;;;;;;;;;6272393;22;20172;-68
2022/08/16 05:14:53;;;;;;;29.50;26.35;;;;;;;;;;6271406;22;20151;-68
2022/08/16 05:17:18;;;;;;;28.38;25.45;;;;;;;;;;6271965;22;20159;-68
2022/08/16 05:19:44;;;;;;;32.65;28.73;;;;;;;;;;6270648;22;20550;-68
2022/08/16 05:22:09;;;;;;;30.25;27.17;;;;;;;;;;6271475;22;20254;-68
2022/08/16 05:24:34;;;;;;;27.23;24.33;;;;;;;;;;6271680;22;20151;-68
2022/08/16 05:26:59;;;;;;;32.53;28.92;;;;;;;;;;6244960;22;20155;-69
2022/08/16 05:29:25;;;;;;;32.13;28.63;;;;;;;;;;6271078;22;20168;-68
2022/08/16 05:31:50;;;;;;;31.10;27.77;;;;;;;;;;6270742;22;20191;-68
2022/08/16 05:34:18;;;;;;;32.35;28.98;;;;;;;;;;6269898;22;20358;-69
2022/08/16 05:36:43;;;;;;;31.85;28.45;;;;;;;;;;6272071;22;20294;-68
2022/08/16 05:39:09;;;;;;;32.15;28.30;;;;;;;;;;6271335;22;20205;-68
2022/08/16 05:41:35;;;;;;;32.03;28.75;;;;;;;;;;6270397;22;20164;-68
2022/08/16 05:44:00;;;;;;;31.30;27.90;;;;;;;;;;6272084;22;20148;-68
2022/08/16 05:46:25;;;;;;;31.17;27.85;;;;;;;;;;6270422;22;20159;-68
2022/08/16 05:48:51;;;;;;;30.13;27.10;;;;;;;;;;6270849;22;20558;-68
2022/08/16 05:51:17;;;;;;;30.25;27.15;;;;;;;;;;6274036;22;20235;-69
2022/08/16 05:53:42;;;;;;;32.42;29.02;;;;;;;;;;6274470;22;20486;-69
2022/08/16 05:56:08;;;;;;;35.80;29.58;;;;;;;;;;6274526;22;20226;-69
2022/08/16 05:58:33;;;;;;;31.13;27.92;;;;;;;;;;6274106;22;20191;-68
2022/08/16 06:00:58;;;;;;;30.95;27.75;;;;;;;;;;6271824;22;20170;-68
2022/08/16 06:03:23;;;;;;;30.33;27.13;;;;;;;;;;6274309;22;20162;-68
2022/08/16 06:05:48;;;;;;;29.50;26.40;;;;;;;;;;6274010;22;20144;-69
2022/08/16 06:08:13;;;;;;;29.58;26.33;;;;;;;;;;6274249;22;20910;-69
2022/08/16 06:10:39;;;;;;;29.50;26.55;;;;;;;;;;6272672;22;20157;-69
2022/08/16 06:13:04;;;;;;;29.38;26.27;;;;;;;;;;6275218;22;20619;-69
2022/08/16 06:15:29;;;;;;;28.60;25.70;;;;;;;;;;6275190;22;20242;-69
2022/08/16 06:17:54;;;;;;;27.60;24.80;;;;;;;;;;6275008;22;20582;-69
2022/08/16 06:20:22;;;;;;;27.85;25.15;;;;;;;;;;6274374;22;20172;-69
2022/08/16 06:22:47;;;;;;;30.95;26.92;;;;;;;;;;6272555;22;20184;-68
2022/08/16 06:25:12;;;;;;;29.50;26.67;;;;;;;;;;6272815;22;20194;-69
2022/08/16 06:27:38;;;;;;;29.38;26.55;;;;;;;;;;6273457;22;20234;-68
2022/08/16 06:30:05;;;;;;;29.25;26.27;;;;;;;;;;6273678;22;20502;-68
2022/08/16 06:32:30;;;;;;;29.98;26.90;;;;;;;;;;6272929;22;20233;-68
2022/08/16 06:34:55;;;;;;;32.67;26.52;;;;;;;;;;6274169;22;20486;-68
2022/08/16 06:37:20;;;;;;;28.95;25.90;;;;;;;;;;6274787;22;20202;-69
2022/08/16 06:39:46;;;;;;;30.73;26.73;;;;;;;;;;6274118;22;20253;-69
2022/08/16 06:42:11;;;;;;;29.98;26.77;;;;;;;;;;6273505;22;20168;-69
2022/08/16 06:44:36;;;;;;;32.40;28.83;;;;;;;;;;6274490;22;20596;-69
2022/08/16 06:47:01;;;;;;;32.37;28.23;;;;;;;;;;6272990;22;20362;-68
2022/08/16 06:49:26;;;;;;;30.77;27.58;;;;;;;;;;6274396;22;20386;-71
2022/08/16 06:51:52;;;;;;;33.67;28.20;;;;;;;;;;6272192;22;20163;-68
2022/08/16 06:54:17;;;;;;;30.58;27.48;;;;;;;;;;6274045;22;20653;-68
2022/08/16 06:56:43;;;;;;;30.20;27.15;;;;;;;;;;6272147;22;20179;-68
2022/08/16 06:59:08;;;;;;;31.33;28.02;;;;;;;;;;6273287;22;20180;-68
2022/08/16 07:01:33;;;;;;;32.22;28.85;;;;;;;;;;6273351;22;20195;-69
2022/08/16 07:03:58;;;;;;;32.07;28.80;;;;;;;;;;6274013;22;20148;-68
2022/08/16 07:06:24;;;;;;;32.05;28.48;;;;;;;;;;6273767;22;20360;-68
2022/08/16 07:08:49;;;;;;;32.28;28.17;;;;;;;;;;6274090;22;20161;-68
2022/08/16 07:11:16;;;;;;;31.65;28.42;;;;;;;;;;6271735;22;20152;-68
2022/08/16 07:13:41;;;;;;;31.65;28.15;;;;;;;;;;6274417;22;20156;-69
2022/08/16 07:16:10;;;;;;;30.33;27.13;;;;;;;;;;6272271;22;20231;-68
2022/08/16 07:18:36;;;;;;;33.33;30.13;;;;;;;;;;6273928;22;20183;-69
2022/08/16 07:21:01;;;;;;;29.70;26.70;;;;;;;;;;6273449;22;20168;-68
2022/08/16 07:23:26;;;;;;;31.53;28.43;;;;;;;;;;6273734;22;20549;-69
2022/08/16 07:25:52;;;;;;;30.43;27.50;;;;;;;;;;6271811;22;20380;-69
2022/08/16 07:28:18;;;;;;;32.05;28.75;;;;;;;;;;6273614;22;20370;-69
2022/08/16 07:30:43;;;;;;;30.60;27.70;;;;;;;;;;6272937;22;20172;-68
2022/08/16 07:33:09;;;;;;;31.55;28.40;;;;;;;;;;6273507;22;20271;-69
2022/08/16 07:35:34;;;;;;;33.45;29.88;;;;;;;;;;6273397;22;20251;-68
2022/08/16 07:38:00;;;;;;;32.17;28.77;;;;;;;;;;6273901;22;20145;-69
2022/08/16 07:40:25;;;;;;;31.17;28.13;;;;;;;;;;6271522;22;20230;-69
2022/08/16 07:42:51;;;;;;;32.97;29.40;;;;;;;;;;6273240;22;20155;-69
2022/08/16 07:45:17;;;;;;;31.33;28.27;;;;;;;;;;6273742;22;20176;-68
2022/08/16 07:47:42;;;;;;;31.50;28.50;;;;;;;;;;6273889;22;20652;-69
2022/08/16 07:50:08;;;;;;;31.45;28.23;;;;;;;;;;6273559;22;20172;-69
2022/08/16 07:52:33;;;;;;;31.17;27.70;;;;;;;;;;6273159;22;20191;-69
2022/08/16 07:54:58;;;;;;;34.95;27.48;;;;;;;;;;6274185;22;20231;-69
2022/08/16 07:57:24;;;;;;;29.95;26.90;;;;;;;;;;6273523;22;20436;-69
2022/08/16 07:59:49;;;;;;;27.38;24.52;;;;;;;;;;6274355;22;20267;-69
2022/08/16 08:02:15;;;;;;;32.00;28.20;;;;;;;;;;6275166;22;20588;-69
2022/08/16 08:04:40;;;;;;;32.60;29.35;;;;;;;;;;6278001;22;20475;-69
2022/08/16 08:07:05;;;;;;;31.23;26.42;;;;;;;;;;6275741;22;20144;-69
2022/08/16 08:09:31;;;;;;;29.92;26.52;;;;;;;;;;6276552;22;20187;-69
2022/08/16 08:11:56;;;;;;;30.83;27.52;;;;;;;;;;6275222;22;20168;-68
2022/08/16 08:14:21;;;;;;;30.35;27.42;;;;;;;;;;6274699;22;20183;-69
2022/08/16 08:16:47;;;;;;;30.60;27.63;;;;;;;;;;6273821;22;20167;-68
2022/08/16 08:19:12;;;;;;;27.17;24.50;;;;;;;;;;6274137;22;20179;-69
2022/08/16 08:21:39;;;;;;;31.08;27.80;;;;;;;;;;6271243;22;20413;-69
2022/08/16 08:24:06;;;;;;;30.38;27.23;;;;;;;;;;6271929;22;20168;-68
2022/08/16 08:26:32;;;;;;;28.35;25.75;;;;;;;;;;6273882;22;20144;-69
2022/08/16 08:28:57;;;;;;;28.17;24.37;;;;;;;;;;6273206;22;20206;-69
2022/08/16 08:31:22;;;;;;;29.17;26.07;;;;;;;;;;6272755;22;20414;-69
2022/08/16 08:33:47;;;;;;;30.05;26.90;;;;;;;;;;6273444;22;20678;-69
2022/08/16 08:36:15;;;;;;;28.10;25.10;;;;;;;;;;6274122;22;20151;-69
2022/08/16 08:38:41;;;;;;;28.80;25.90;;;;;;;;;;6273798;22;20198;-69
2022/08/16 08:41:07;;;;;;;29.17;25.27;;;;;;;;;;6272791;22;20656;-69
2022/08/16 08:43:34;;;;;;;29.70;26.75;;;;;;;;;;6273351;22;20267;-69
2022/08/16 08:45:59;;;;;;;28.88;25.70;;;;;;;;;;6273500;22;20148;-69
2022/08/16 08:48:25;;;;;;;29.27;26.45;;;;;;;;;;6271173;22;20152;-69
2022/08/16 08:50:50;;;;;;;28.42;25.45;;;;;;;;;;6272925;22;20618;-69
2022/08/16 08:53:15;;;;;;;27.90;25.05;;;;;;;;;;6273220;22;20144;-68
2022/08/16 08:55:41;;;;;;;27.17;24.48;;;;;;;;;;6272898;22;20579;-69
2022/08/16 08:58:06;;;;;;;26.52;23.92;;;;;;;;;;6272994;22;20144;-69
2022/08/16 09:00:31;;;;;;;28.30;25.63;;;;;;;;;;6272428;22;20226;-68
2022/08/16 09:02:56;;;;;;;25.53;23.10;;;;;;;;;;6272803;22;20655;-68
2022/08/16 09:05:25;;;;;;;26.75;22.30;;;;;;;;;;6272479;22;20156;-69
2022/08/16 09:07:50;;;;;;;23.65;21.17;;;;;;;;;;6272565;22;20303;-69
2022/08/16 09:10:15;;;;;;;24.40;21.95;;;;;;;;;;6272747;22;20265;-69
2022/08/16 09:12:41;;;;;;;23.87;21.47;;;;;;;;;;6270904;22;20144;-68
2022/08/16 09:15:07;;;;;;;23.08;20.88;;;;;;;;;;6272447;22;20144;-69
2022/08/16 09:17:32;;;;;;;24.38;22.05;;;;;;;;;;6271966;22;20247;-69
2022/08/16 09:19:57;;;;;;;23.73;21.43;;;;;;;;;;6272489;22;20196;-69
2022/08/16 09:22:24;;;;;;;23.53;21.23;;;;;;;;;;6271748;22;20479;-68
2022/08/16 09:24:50;;;;;;;23.08;20.77;;;;;;;;;;6272513;22;20358;-69
2022/08/16 09:27:15;;;;;;;25.65;22.98;;;;;;;;;;6272449;22;20555;-69
2022/08/16 09:29:41;;;;;;;24.45;21.88;;;;;;;;;;6272665;22;20616;-69
2022/08/16 09:32:06;;;;;;;25.88;23.48;;;;;;;;;;6272253;22;20151;-68
2022/08/16 09:34:32;;;;;;;25.37;22.93;;;;;;;;;;6272697;22;20144;-69
2022/08/16 09:36:57;;;;;;;24.98;22.40;;;;;;;;;;6272775;22;20376;-69
2022/08/16 09:39:23;;;;;;;24.42;21.92;;;;;;;;;;6273036;22;20164;-69
2022/08/16 09:41:50;;;;;;;22.83;19.73;;;;;;;;;;6272160;22;20176;-68
2022/08/16 09:44:16;;;;;;;22.63;20.15;;;;;;;;;;6272360;22;20140;-68
2022/08/16 09:46:42;;;;;;;20.42;18.45;;;;;;;;;;6272462;22;20255;-68
2022/08/16 09:49:07;;;;;;;19.67;17.85;;;;;;;;;;6272242;22;20196;-68
2022/08/16 09:51:32;;;;;;;20.43;18.63;;;;;;;;;;6272038;22;20144;-68
2022/08/16 09:53:57;;;;;;;22.07;19.83;;;;;;;;;;6272441;22;20206;-68
2022/08/16 09:56:30;;;;;;;21.30;19.20;;;;;;;;;;6272194;22;20148;-68
2022/08/16 09:58:55;;;;;;;21.33;19.15;;;;;;;;;;6271992;22;20394;-68
2022/08/16 10:01:21;;;;;;;22.73;20.50;;;;;;;;;;6271680;22;20179;-69
2022/08/16 10:03:46;;;;;;;22.13;19.95;;;;;;;;;;6269908;22;20538;-68
2022/08/16 10:06:11;;;;;;;20.45;18.58;;;;;;;;;;6272131;22;20148;-68
2022/08/16 10:08:36;;;;;;;22.73;20.70;;;;;;;;;;6271960;22;20497;-68
2022/08/16 10:13:45;;;;;;;24.45;20.63;;;;;;;;;;6271906;22;20221;-68
2022/08/16 10:16:12;;;;;;;21.00;19.10;;;;;;;;;;6271832;22;20327;-68
2022/08/16 10:18:39;;;;;;;22.25;19.77;;;;;;;;;;6269771;22;20180;-68
2022/08/16 10:21:05;;;;;;;21.80;19.80;;;;;;;;;;6271153;22;20199;-69
2022/08/16 10:23:30;;;;;;;20.30;18.40;;;;;;;;;;6271356;22;20518;-68
2022/08/16 10:25:55;;;;;;;22.07;19.80;;;;;;;;;;6271903;22;20151;-68
2022/08/16 10:28:20;;;;;;;23.30;21.02;;;;;;;;;;6271625;22;20172;-68
2022/08/16 10:30:46;;;;;;;22.93;20.67;;;;;;;;;;6271750;22;20155;-68
2022/08/16 10:33:12;;;;;;;23.95;21.50;;;;;;;;;;6271711;22;20219;-68
2022/08/16 10:35:37;;;;;;;21.85;19.88;;;;;;;;;;6273458;22;20152;-68
2022/08/16 10:38:03;;;;;;;22.50;20.23;;;;;;;;;;6273845;22;20219;-68
2022/08/16 10:40:28;;;;;;;25.30;22.50;;;;;;;;;;6273663;22;20168;-68
2022/08/16 10:42:53;;;;;;;22.97;19.73;;;;;;;;;;6273814;22;20187;-67
2022/08/16 10:45:18;;;;;;;20.60;18.55;;;;;;;;;;6274115;22;20406;-68
2022/08/16 10:47:44;;;;;;;20.45;18.63;;;;;;;;;;6274080;22;20141;-68
2022/08/16 10:50:09;;;;;;;19.15;17.23;;;;;;;;;;6273829;22;20171;-67
2022/08/16 10:52:35;;;;;;;18.75;17.02;;;;;;;;;;6273272;22;20214;-67
2022/08/16 10:55:01;;;;;;;21.17;19.17;;;;;;;;;;6273940;22;20149;-67
2022/08/16 10:57:27;;;;;;;18.75;17.00;;;;;;;;;;6273755;22;20369;-68
2022/08/16 10:59:53;;;;;;;20.90;18.95;;;;;;;;;;6275141;22;20195;-72
2022/08/16 11:02:18;;;;;;;20.13;18.02;;;;;;;;;;6274511;22;20586;-70
2022/08/16 11:04:44;;;;;;;21.85;19.48;;;;;;;;;;6275705;22;20179;-71
2022/08/16 11:07:09;;;;;;;19.92;17.90;;;;;;;;;;6275848;22;20199;-71
2022/08/16 11:09:34;;;;;;;21.65;18.33;;;;;;;;;;6274592;22;20167;-71
2022/08/16 11:12:00;;;;;;;21.97;19.80;;;;;;;;;;6275475;22;20589;-71
2022/08/16 11:14:25;;;;;;;20.13;18.33;;;;;;;;;;6275437;22;20148;-70
2022/08/16 11:16:51;;;;;;;20.57;18.50;;;;;;;;;;6275516;22;20376;-71
2022/08/16 11:19:16;;;;;;;23.00;20.75;;;;;;;;;;6274682;22;20164;-71
2022/08/16 11:21:42;;;;;;;19.65;17.88;;;;;;;;;;6273173;22;20734;-71
2022/08/16 11:24:07;;;;;;;22.30;20.05;;;;;;;;;;6274635;22;20141;-71
2022/08/16 11:26:32;;;;;;;19.33;17.63;;;;;;;;;;6274979;22;20584;-71
2022/08/16 11:28:57;;;;;;;20.17;18.10;;;;;;;;;;6274916;22;20796;-72
2022/08/16 11:31:23;;;;;;;23.33;18.27;;;;;;;;;;6274844;22;20155;-72
2022/08/16 11:33:49;;;;;;;21.55;19.63;;;;;;;;;;6274893;22;20144;-71
2022/08/16 11:36:14;;;;;;;20.42;18.55;;;;;;;;;;6275588;22;20147;-71
2022/08/16 11:38:39;;;;;;;19.33;17.42;;;;;;;;;;6274950;22;20148;-71
2022/08/16 11:41:04;;;;;;;19.77;17.97;;;;;;;;;;6273137;22;20175;-71
2022/08/16 11:43:31;;;;;;;16.33;14.60;;;;;;;;;;6275036;22;20151;-71
2022/08/16 11:45:57;;;;;;;19.95;18.30;;;;;;;;;;6275073;22;20143;-71
2022/08/16 11:48:24;;;;;;;20.52;18.23;;;;;;;;;;6274683;22;20144;-71
2022/08/16 11:50:49;;;;;;;18.02;16.23;;;;;;;;;;6274777;22;20160;-71
2022/08/16 11:53:15;;;;;;;18.58;16.65;;;;;;;;;;6275078;22;20226;-72
2022/08/16 11:55:41;;;;;;;20.13;18.13;;;;;;;;;;6275064;22;20151;-72
2022/08/16 11:58:07;;;;;;;22.15;20.10;;;;;;;;;;6275376;22;20563;-71
2022/08/16 12:00:33;;;;;;;17.27;15.57;;;;;;;;;;6272915;22;20199;-71
2022/08/16 12:02:58;;;;;;;18.77;17.02;;;;;;;;;;6274484;22;20591;-71
2022/08/16 12:05:25;;;;;;;22.10;19.15;;;;;;;;;;6274874;22;20144;-71
2022/08/16 12:07:50;;;;;;;20.42;18.63;;;;;;;;;;6274649;22;20539;-72
2022/08/16 12:10:17;;;;;;;16.13;14.77;;;;;;;;;;6273016;22;20176;-72
2022/08/16 12:12:42;;;;;;;16.52;14.90;;;;;;;;;;6274725;22;20145;-71
2022/08/16 12:15:08;;;;;;;18.55;12.93;;;;;;;;;;6274701;22;20149;-71
2022/08/16 12:17:33;;;;;;;12.93;11.10;;;;;;;;;;6274704;22;20144;-70
2022/08/16 12:19:59;;;;;;;14.25;12.02;;;;;;;;;;6274421;22;20620;-71
2022/08/16 12:22:24;;;;;;;16.15;14.68;;;;;;;;;;6274132;22;20238;-71
2022/08/16 12:24:50;;;;;;;15.40;14.00;;;;;;;;;;6274535;22;20592;-71
2022/08/16 12:27:15;;;;;;;13.77;12.45;;;;;;;;;;6273234;22;20141;-72
2022/08/16 12:29:41;;;;;;;14.73;13.43;;;;;;;;;;6274670;22;20207;-70
2022/08/16 12:32:06;;;;;;;16.15;13.98;;;;;;;;;;6274052;22;20152;-72
2022/08/16 12:34:31;;;;;;;16.83;15.13;;;;;;;;;;6274592;22;20719;-70
2022/08/16 12:36:57;;;;;;;15.13;13.70;;;;;;;;;;6274589;22;20148;-70
2022/08/16 12:39:22;;;;;;;14.82;13.40;;;;;;;;;;6274558;22;20746;-71
2022/08/16 12:41:47;;;;;;;16.77;14.50;;;;;;;;;;6274589;22;20572;-70
2022/08/16 12:44:14;;;;;;;19.50;16.83;;;;;;;;;;6274613;22;20385;-73
2022/08/16 12:46:40;;;;;;;17.83;15.95;;;;;;;;;;6274588;22;20176;-70
2022/08/16 12:49:07;;;;;;;18.60;16.73;;;;;;;;;;6274526;22;20160;-71
2022/08/16 12:51:34;;;;;;;20.17;17.20;;;;;;;;;;6274134;22;20198;-71
2022/08/16 12:54:01;;;;;;;19.50;17.70;;;;;;;;;;6274638;22;20152;-71
2022/08/16 12:56:28;;;;;;;20.30;18.38;;;;;;;;;;6274407;22;20154;-70
2022/08/16 12:58:54;;;;;;;18.35;16.58;;;;;;;;;;6273850;22;20184;-72
2022/08/16 13:01:21;;;;;;;18.33;16.70;;;;;;;;;;6274045;22;20160;-72
2022/08/16 13:03:47;;;;;;;16.58;15.07;;;;;;;;;;6274286;22;20156;-71
2022/08/16 13:06:12;;;;;;;17.70;15.85;;;;;;;;;;6274475;22;20227;-71
2022/08/16 13:08:38;;;;;;;21.88;16.90;;;;;;;;;;6274055;22;20607;-70
2022/08/16 13:11:04;;;;;;;18.00;16.30;;;;;;;;;;6273820;22;20144;-71
2022/08/16 13:13:30;;;;;;;19.40;16.13;;;;;;;;;;6274434;22;20164;-70
2022/08/16 13:15:59;;;;;;;18.05;16.38;;;;;;;;;;6274329;22;20148;-71
2022/08/16 13:18:26;;;;;;;16.67;15.07;;;;;;;;;;6274551;22;20224;-71
2022/08/16 13:20:52;;;;;;;18.02;16.10;;;;;;;;;;6273970;22;20227;-71
2022/08/16 13:23:17;;;;;;;16.27;14.85;;;;;;;;;;6274383;22;20137;-71
2022/08/16 13:25:43;;;;;;;18.70;16.80;;;;;;;;;;6274093;22;20156;-71
2022/08/16 13:28:09;;;;;;;17.58;15.85;;;;;;;;;;6274182;22;20144;-71
2022/08/16 13:30:37;;;;;;;14.88;13.32;;;;;;;;;;6273781;22;20191;-71
2022/08/16 13:33:02;;;;;;;14.27;12.07;;;;;;;;;;6272014;22;20144;-71
2022/08/16 13:35:28;;;;;;;18.63;15.98;;;;;;;;;;6273714;22;20172;-71
2022/08/16 13:37:53;;;;;;;18.17;16.33;;;;;;;;;;6273957;22;20148;-72
2022/08/16 13:40:19;;;;;;;16.33;14.50;;;;;;;;;;6273882;22;20171;-72
2022/08/16 13:42:46;;;;;;;15.98;12.95;;;;;;;;;;6273796;22;20516;-72
2022/08/16 13:45:12;;;;;;;18.33;14.60;;;;;;;;;;6272371;22;20630;-72
2022/08/16 13:47:38;;;;;;;12.93;11.63;;;;;;;;;;6274223;22;20149;-72
2022/08/16 13:50:05;;;;;;;12.10;11.00;;;;;;;;;;6274332;22;20295;-71
2022/08/16 13:52:30;;;;;;;14.20;12.88;;;;;;;;;;6272344;22;20180;-71
2022/08/16 13:54:55;;;;;;;13.95;12.55;;;;;;;;;;6274152;22;20603;-71
2022/08/16 13:57:21;;;;;;;13.95;12.48;;;;;;;;;;6274225;22;20223;-72
2022/08/16 13:59:46;;;;;;;11.85;10.82;;;;;;;;;;6273687;22;20650;-70
2022/08/16 14:02:11;;;;;;;12.55;10.55;;;;;;;;;;6273767;22;20239;-72
2022/08/16 14:04:38;;;;;;;10.07;8.80;;;;;;;;;;6273950;22;20145;-71
2022/08/16 14:07:05;;;;;;;10.90;7.53;;;;;;;;;;6274624;22;20373;-71
2022/08/16 14:09:30;;;;;;;8.35;7.55;;;;;;;;;;6274070;22;20176;-71